createdAt,value
2022-11-19T00:04:38.013Z,4.21
2022-11-19T00:09:56.838Z,4.06
2022-11-19T00:15:15.524Z,4.01
2022-11-19T00:20:34.583Z,3.89
2022-11-19T00:25:54.013Z,3.77
2022-11-19T00:31:13.728Z,3.72
2022-11-19T00:36:33.202Z,3.62
2022-11-19T00:42:01.277Z,3.49
2022-11-19T00:47:11.918Z,3.49
2022-11-19T00:52:31.381Z,3.39
2022-11-19T00:57:50.232Z,3.36
2022-11-19T01:03:10.101Z,3.34
2022-11-19T01:08:28.965Z,3.31
2022-11-19T01:13:47.924Z,3.22
2022-11-19T01:19:07.388Z,3.18
2022-11-19T01:24:27.257Z,3.12
2022-11-19T01:29:46.047Z,3.09
2022-11-19T01:35:05.146Z,3.08
2022-11-19T01:40:24.218Z,3.05
2022-11-19T01:45:43.267Z,3.01
2022-11-19T01:51:03.042Z,2.93
2022-11-19T01:56:21.562Z,2.8
2022-11-19T02:01:49.378Z,2.73
2022-11-19T02:06:59.693Z,2.64
2022-11-19T02:12:19.127Z,2.57
2022-11-19T02:17:38.069Z,2.52
2022-11-19T02:22:57.500Z,2.49
2022-11-19T02:28:16.477Z,2.43
2022-11-19T02:33:35.818Z,2.36
2022-11-19T02:38:54.732Z,2.33
2022-11-19T02:44:13.695Z,2.28
2022-11-19T02:49:32.653Z,2.25
2022-11-19T02:54:51.768Z,2.21
2022-11-19T03:00:11.405Z,2.18
2022-11-19T03:05:30.408Z,2.11
2022-11-19T03:10:49.918Z,2.08
2022-11-19T03:16:08.913Z,2.1
2022-11-19T03:21:28.489Z,2.06
2022-11-19T03:26:47.756Z,2.04
2022-11-19T03:32:07.371Z,2.05
2022-11-19T03:37:26.807Z,2.06
2022-11-19T03:42:46.120Z,2.04
2022-11-19T03:48:05.354Z,2.02
2022-11-19T03:53:24.741Z,2.01
2022-11-19T03:58:44.642Z,2.01
2022-11-19T04:04:04.079Z,2.01
2022-11-19T04:09:22.913Z,1.99
2022-11-19T04:14:42.613Z,1.97
2022-11-19T04:20:01.462Z,1.93
2022-11-19T04:25:20.504Z,1.88
2022-11-19T04:30:49.068Z,1.85
2022-11-19T04:35:59.337Z,1.82
2022-11-19T04:41:18.838Z,1.81
2022-11-19T04:46:38.653Z,1.79
2022-11-19T04:52:05.827Z,1.79
2022-11-19T04:57:17.695Z,1.79
2022-11-19T05:02:36.646Z,1.79
2022-11-19T05:07:56.387Z,1.78
2022-11-19T05:13:15.236Z,1.77
2022-11-19T05:18:34.465Z,1.68
2022-11-19T05:23:53.864Z,1.58
2022-11-19T05:29:13.629Z,1.56
2022-11-19T05:34:32.886Z,1.57
2022-11-19T05:40:00.949Z,1.6
2022-11-19T05:45:10.772Z,1.63
2022-11-19T05:50:30.548Z,1.63
2022-11-19T05:55:49.591Z,1.61
2022-11-19T06:01:09.193Z,1.63
2022-11-19T06:06:28.584Z,1.67
2022-11-19T06:11:48.328Z,1.68
2022-11-19T06:17:08.057Z,1.66
2022-11-19T06:22:26.788Z,1.67
2022-11-19T06:27:46.763Z,1.63
2022-11-19T06:33:05.568Z,1.66
2022-11-19T06:38:24.600Z,1.56
2022-11-19T06:43:43.773Z,1.5
2022-11-19T06:49:03.271Z,1.43
2022-11-19T06:54:22.978Z,1.39
2022-11-19T06:59:50.125Z,1.33
2022-11-19T07:05:01.181Z,1.27
2022-11-19T07:10:20.027Z,1.22
2022-11-19T07:15:39.125Z,1.1
2022-11-19T07:20:58.542Z,1.04
2022-11-19T07:26:17.597Z,1.03
2022-11-19T07:31:37.026Z,0.99
2022-11-19T07:36:56.357Z,1.02
2022-11-19T07:42:16.229Z,1.05
2022-11-19T07:47:35.441Z,1.09
2022-11-19T07:53:03.601Z,1.1
2022-11-19T07:58:13.780Z,1.12
2022-11-19T08:03:33.577Z,1.09
2022-11-19T08:08:53.218Z,1.07
2022-11-19T08:14:12.896Z,1.09
2022-11-19T08:19:31.891Z,1.15
2022-11-19T08:25:00.165Z,1.25
2022-11-19T08:30:10.156Z,1.25
2022-11-19T08:35:29.616Z,1.23
2022-11-19T08:40:48.577Z,1.26
2022-11-19T08:46:07.717Z,1.23
2022-11-19T08:51:27.150Z,1.23
2022-11-19T08:56:46.558Z,1.27
2022-11-19T09:02:05.733Z,1.32
2022-11-19T09:07:25.354Z,1.33
2022-11-19T09:12:44.680Z,1.36
2022-11-19T09:18:03.785Z,1.37
2022-11-19T09:23:22.875Z,1.36
2022-11-19T09:23:58.952Z,1.46
2022-11-19T09:29:15.502Z,1.36
2022-11-19T09:34:35.038Z,1.46
2022-11-19T09:39:53.961Z,1.58
2022-11-19T09:45:13.550Z,1.61
2022-11-19T09:50:32.851Z,1.67
2022-11-19T09:55:59.619Z,1.66
2022-11-19T10:01:11.093Z,1.66
2022-11-19T10:06:31.141Z,1.77
2022-11-19T10:11:50.668Z,1.82
2022-11-19T10:17:17.829Z,1.79
2022-11-19T10:22:29.132Z,1.79
2022-11-19T10:27:48.503Z,1.82
2022-11-19T10:33:08.082Z,1.89
2022-11-19T10:38:27.207Z,1.94
2022-11-19T10:43:46.925Z,1.89
2022-11-19T10:49:13.854Z,1.85
2022-11-19T10:54:25.223Z,1.85
2022-11-19T10:59:44.113Z,1.91
2022-11-19T11:05:03.658Z,1.89
2022-11-19T11:10:23.048Z,1.84
2022-11-19T11:15:42.224Z,1.84
2022-11-19T11:21:01.283Z,1.87
2022-11-19T11:26:20.682Z,1.88
2022-11-19T11:31:39.827Z,1.89
2022-11-19T11:36:59.453Z,1.87
2022-11-19T11:42:18.295Z,1.94
2022-11-19T11:47:37.735Z,1.93
2022-11-19T11:52:56.937Z,1.88
2022-11-19T11:58:15.775Z,1.77
2022-11-19T12:03:45.145Z,1.73
2022-11-19T12:08:53.901Z,1.63
2022-11-19T12:14:13.794Z,1.32
2022-11-19T12:19:32.661Z,0.93
2022-11-19T12:25:01.245Z,0.74
2022-11-19T12:30:11.421Z,0.6
2022-11-19T12:35:30.431Z,0.6
2022-11-19T12:40:49.316Z,0.65
2022-11-19T12:46:08.573Z,0.79
2022-11-19T12:51:27.372Z,0.99
2022-11-19T12:56:46.855Z,1.04
2022-11-19T13:02:14.145Z,1.07
2022-11-19T13:07:25.373Z,1.09
2022-11-19T13:12:44.603Z,1.12
2022-11-19T13:18:03.731Z,1.16
2022-11-19T13:23:22.690Z,1.19
2022-11-19T13:28:49.560Z,1.16
2022-11-19T13:34:01.250Z,1.09
2022-11-19T13:39:20.444Z,1.07
2022-11-19T13:44:39.814Z,1.1
2022-11-19T13:49:59.281Z,1.15
2022-11-19T13:55:18.468Z,1.2
2022-11-19T14:00:37.813Z,1.22
2022-11-19T14:05:57.205Z,1.25
2022-11-19T14:11:16.944Z,1.27
2022-11-19T14:16:36.140Z,1.23
2022-11-19T14:21:55.081Z,1.2
2022-11-19T14:27:14.370Z,1.2
2022-11-19T14:32:33.663Z,1.16
2022-11-19T14:37:53.412Z,1.16
2022-11-19T14:43:12.202Z,1.12
2022-11-19T14:48:31.672Z,1.1
2022-11-19T14:53:58.691Z,1.1
2022-11-19T14:59:10.319Z,1.1
2022-11-19T15:04:29.477Z,1.09
2022-11-19T15:09:48.713Z,1.02
2022-11-19T15:15:08.240Z,1.02
2022-11-19T15:20:27.557Z,1
2022-11-19T15:25:54.903Z,0.98
2022-11-19T15:31:05.989Z,0.92
2022-11-19T15:36:25.635Z,0.92
2022-11-19T15:41:44.914Z,0.91
2022-11-19T15:47:04.617Z,0.91
2022-11-19T15:52:23.876Z,0.91
2022-11-19T15:57:43.196Z,0.89
2022-11-19T16:03:02.664Z,0.89
2022-11-19T16:08:22.321Z,0.89
2022-11-19T16:13:50.876Z,0.89
2022-11-19T16:19:00.835Z,0.88
2022-11-19T16:24:19.995Z,0.88
2022-11-19T16:29:39.014Z,0.89
2022-11-19T16:34:58.438Z,0.89
2022-11-19T16:40:17.523Z,0.89
2022-11-19T16:45:37.055Z,0.91
2022-11-19T16:50:55.959Z,0.96
2022-11-19T16:56:16.986Z,0.95
2022-11-19T17:01:33.929Z,0.95
2022-11-19T17:06:53.201Z,0.96
2022-11-19T17:12:12.943Z,0.96
2022-11-19T17:17:35.620Z,0.93
2022-11-19T17:22:51.466Z,0.91
2022-11-19T17:28:10.548Z,0.89
2022-11-19T17:33:32.716Z,0.86
2022-11-19T17:38:48.910Z,0.84
2022-11-19T17:44:08.425Z,0.84
2022-11-19T17:49:27.597Z,0.85
2022-11-19T17:54:47.293Z,0.81
2022-11-19T18:00:06.570Z,0.76
2022-11-19T18:05:25.945Z,0.79
2022-11-19T18:10:45.135Z,0.81
2022-11-19T18:16:04.742Z,0.78
2022-11-19T18:21:24.396Z,0.78
2022-11-19T18:26:51.848Z,0.82
2022-11-19T18:32:03.428Z,0.79
2022-11-19T18:37:22.209Z,0.75
2022-11-19T18:42:41.373Z,0.71
2022-11-19T18:48:00.554Z,0.64
2022-11-19T18:53:19.956Z,0.67
2022-11-19T18:58:39.260Z,0.69
2022-11-19T19:03:58.675Z,0.68
2022-11-19T19:09:17.809Z,0.58
2022-11-19T19:14:37.530Z,0.4
2022-11-19T19:19:57.109Z,0.28
2022-11-19T19:25:16.089Z,0.24
2022-11-19T19:30:35.476Z,0.2
2022-11-19T19:35:54.813Z,0.17
2022-11-19T19:41:14.276Z,0.13
2022-11-19T19:46:33.577Z,0.11
2022-11-19T19:52:01.493Z,0.14
2022-11-19T19:57:12.174Z,0.11
2022-11-19T20:02:31.758Z,0.14
2022-11-19T20:07:50.658Z,0.11
2022-11-19T20:13:09.969Z,0.14
2022-11-19T20:18:28.840Z,0.17
2022-11-19T20:23:47.782Z,0.21
2022-11-19T20:29:06.969Z,0.28
2022-11-19T20:34:26.947Z,0.31
2022-11-19T20:39:46.588Z,0.37
2022-11-19T20:45:06.054Z,0.4
2022-11-19T20:50:25.567Z,0.47
2022-11-19T20:56:04.110Z,0.48
2022-11-19T21:01:03.688Z,0.51
2022-11-19T21:06:22.928Z,0.52
2022-11-19T21:11:41.468Z,0.54
2022-11-19T21:17:00.796Z,0.57
2022-11-19T21:22:20.138Z,0.6
2022-11-19T21:27:39.424Z,0.62
2022-11-19T21:32:58.943Z,0.64
2022-11-19T21:38:18.767Z,0.61
2022-11-19T21:43:37.828Z,0.62
2022-11-19T21:48:56.784Z,0.64
2022-11-19T21:54:15.795Z,0.65
2022-11-19T21:59:35.527Z,0.67
2022-11-19T22:04:54.782Z,0.67
2022-11-19T22:10:14.269Z,0.69
2022-11-19T22:15:33.056Z,0.69
2022-11-19T22:20:52.371Z,0.69
2022-11-19T22:26:11.645Z,0.71
2022-11-19T22:31:30.449Z,0.68
2022-11-19T22:36:49.729Z,0.69
2022-11-19T22:42:09.502Z,0.68
2022-11-19T22:47:29.259Z,0.72
2022-11-19T22:52:48.489Z,0.71
2022-11-19T22:58:07.815Z,0.75
2022-11-19T23:03:26.661Z,0.67
2022-11-19T23:08:45.569Z,0.61
2022-11-19T23:14:05.185Z,0.65
2022-11-19T23:19:24.893Z,0.67
2022-11-19T23:24:43.920Z,0.65
2022-11-19T23:30:03.138Z,0.6
2022-11-19T23:35:22.842Z,0.58
2022-11-19T23:40:41.897Z,0.5
2022-11-19T23:46:00.897Z,0.37
2022-11-19T23:51:20.027Z,0.24
2022-11-19T23:56:39.026Z,0.17
